Time;durP1;ratioP1;P1;durP2;ratioP2;P2;SDS_P1;SDS_P2;PMS_P1;PMS_P2;Temp;Humidity;BMP_temperature;BMP_pressure;BME280_temperature;BME280_humidity;BME280_pressure;Samples;Min_cycle;Max_cycle;Signal;HPM_P1;HPM_P2
2023/09/02 00:01:33;;;;;;;8.17;3.33;;;20.60;99.90;;;;;;4971139;28;20055;-64
2023/09/02 00:04:00;;;;;;;6.23;3.37;;;20.60;99.90;;;;;;4973814;28;20053;-66
2023/09/02 00:06:26;;;;;;;7.05;3.25;;;20.70;99.90;;;;;;4972874;28;20042;-65
2023/09/02 00:08:52;;;;;;;7.40;2.93;;;20.60;99.90;;;;;;4966234;28;20038;-65
2023/09/02 00:11:17;;;;;;;8.87;4.00;;;20.50;99.90;;;;;;4969424;28;20038;-65
2023/09/02 00:13:43;;;;;;;5.00;2.93;;;20.50;99.90;;;;;;4969431;28;20062;-67
2023/09/02 00:16:08;;;;;;;6.87;3.00;;;20.60;99.90;;;;;;4961196;28;20097;-66
2023/09/02 00:18:34;;;;;;;4.43;2.83;;;20.50;99.90;;;;;;4967156;28;20039;-66
2023/09/02 00:20:59;;;;;;;7.57;3.17;;;20.50;99.90;;;;;;4972329;28;20034;-66
2023/09/02 00:23:25;;;;;;;6.07;3.67;;;20.50;99.90;;;;;;4962443;28;20358;-67
2023/09/02 00:25:51;;;;;;;4.77;3.40;;;20.50;99.90;;;;;;4970124;28;20039;-66
2023/09/02 00:28:16;;;;;;;6.63;3.72;;;20.50;99.90;;;;;;4964131;28;20034;-64
2023/09/02 00:30:42;;;;;;;6.97;3.70;;;20.40;99.90;;;;;;4969348;28;20164;-66
2023/09/02 00:33:07;;;;;;;5.00;3.33;;;20.40;99.90;;;;;;4972203;28;20034;-66
2023/09/02 00:35:33;;;;;;;6.53;3.43;;;20.40;99.90;;;;;;4964511;28;20502;-67
2023/09/02 00:37:59;;;;;;;4.83;3.30;;;20.50;99.90;;;;;;4967675;28;20037;-66
2023/09/02 00:40:27;;;;;;;5.57;3.43;;;20.50;99.90;;;;;;4967064;28;20027;-65
2023/09/02 00:42:55;;;;;;;7.43;4.00;;;20.50;99.90;;;;;;4967144;28;20488;-66
2023/09/02 00:45:23;;;;;;;6.03;3.00;;;20.50;99.90;;;;;;4965018;28;20509;-66
2023/09/02 00:47:50;;;;;;;4.97;3.15;;;20.40;99.90;;;;;;4967208;28;20022;-65
2023/09/02 00:50:15;;;;;;;;;;;20.10;99.90;;;;;;4965780;28;20023;-66
2023/09/02 00:52:41;;;;;;;7.50;3.88;;;20.20;99.90;;;;;;4966408;28;19917;-66
2023/09/02 00:55:07;;;;;;;5.20;3.33;;;20.40;99.90;;;;;;4980955;28;20037;-67
2023/09/02 00:57:33;;;;;;;5.90;3.53;;;20.30;99.90;;;;;;4965755;28;20022;-66
2023/09/02 01:00:04;;;;;;;6.97;3.85;;;20.40;99.90;;;;;;4967435;28;20138;-64
2023/09/02 01:02:30;;;;;;;6.05;3.10;;;20.30;99.90;;;;;;4966491;28;20570;-67
2023/09/02 01:04:58;;;;;;;5.82;3.38;;;20.30;99.90;;;;;;4976089;28;20121;-66
2023/09/02 01:07:25;;;;;;;6.53;4.28;;;20.20;99.90;;;;;;4969317;28;20085;-66
2023/09/02 01:09:51;;;;;;;;;;;20.30;99.90;;;;;;4968619;28;20505;-66
2023/09/02 01:12:17;;;;;;;6.05;2.95;;;20.30;99.90;;;;;;4972156;28;20363;-66
2023/09/02 01:14:43;;;;;;;7.95;3.90;;;20.10;99.90;;;;;;4964666;28;20034;-66
2023/09/02 01:17:09;;;;;;;7.50;3.25;;;20.10;99.90;;;;;;4967691;28;20383;-67
2023/09/02 01:19:38;;;;;;;7.80;3.65;;;20.10;99.90;;;;;;4975724;28;20116;-66
2023/09/02 01:22:31;;;;;;;6.97;3.35;;;20.10;99.90;;;;;;4969486;28;20025;-64
2023/09/02 01:25:33;;;;;;;5.65;3.53;;;20.30;99.90;;;;;;4969221;28;20046;-64
2023/09/02 01:28:09;;;;;;;4.90;2.88;;;20.20;99.90;;;;;;4968298;28;20141;-66
2023/09/02 01:30:36;;;;;;;7.72;3.20;;;20.20;99.90;;;;;;4962704;28;20031;-65
2023/09/02 01:33:05;;;;;;;5.35;3.00;;;20.20;99.90;;;;;;4968872;28;20034;-65
2023/09/02 01:35:34;;;;;;;4.68;2.97;;;20.10;99.90;;;;;;4964761;28;20134;-64
2023/09/02 01:38:01;;;;;;;4.15;3.00;;;20.20;99.90;;;;;;4966952;28;20129;-67
2023/09/02 01:40:28;;;;;;;7.97;3.30;;;20.10;99.90;;;;;;4963225;28;20035;-67
2023/09/02 01:42:57;;;;;;;9.05;3.20;;;20.20;99.90;;;;;;4968765;28;20441;-66
2023/09/02 01:45:27;;;;;;;5.63;2.85;;;20.20;99.90;;;;;;4965292;28;20047;-65
2023/09/02 01:47:54;;;;;;;6.32;2.60;;;20.00;99.90;;;;;;4961413;28;20070;-67
2023/09/02 01:50:24;;;;;;;9.23;3.20;;;20.00;99.90;;;;;;4968501;28;20122;-66
2023/09/02 01:52:51;;;;;;;4.35;3.00;;;20.10;99.90;;;;;;4975608;28;20026;-65
2023/09/02 01:55:17;;;;;;;3.53;2.47;;;20.10;99.90;;;;;;4970810;28;20034;-64
2023/09/02 01:57:43;;;;;;;6.10;2.58;;;20.20;99.90;;;;;;4973085;28;20022;-66
2023/09/02 02:00:09;;;;;;;6.47;2.85;;;20.10;99.90;;;;;;4969622;28;20066;-64
2023/09/02 02:02:37;;;;;;;5.20;2.70;;;20.10;99.90;;;;;;4966246;28;20073;-67
2023/09/02 02:05:06;;;;;;;4.93;3.10;;;20.10;99.90;;;;;;4968458;28;20494;-65
2023/09/02 02:07:37;;;;;;;5.15;2.67;;;20.10;99.90;;;;;;4967219;28;20023;-65
2023/09/02 02:10:11;;;;;;;6.90;2.80;;;20.10;99.90;;;;;;4968823;28;20482;-67
2023/09/02 02:12:40;;;;;;;4.75;3.15;;;20.30;99.90;;;;;;4965220;28;20110;-66
2023/09/02 02:15:10;;;;;;;15.73;3.00;;;20.20;99.90;;;;;;4973832;28;20057;-68
2023/09/02 02:17:36;;;;;;;3.88;2.38;;;20.20;99.90;;;;;;4967873;28;20066;-67
2023/09/02 02:20:03;;;;;;;5.05;2.50;;;20.10;99.90;;;;;;4967797;28;20434;-67
2023/09/02 02:22:28;;;;;;;4.60;2.65;;;20.10;99.90;;;;;;4976291;28;20778;-67
2023/09/02 02:24:54;;;;;;;3.40;2.43;;;19.90;99.90;;;;;;4978371;28;20031;-66
2023/09/02 02:27:20;;;;;;;6.03;2.93;;;20.10;99.90;;;;;;4964532;28;20027;-65
2023/09/02 02:29:46;;;;;;;4.88;2.50;;;19.90;99.90;;;;;;4976095;28;20123;-67
2023/09/02 02:32:11;;;;;;;6.13;2.85;;;19.90;99.90;;;;;;4977559;28;20498;-67
2023/09/02 02:34:37;;;;;;;7.13;2.70;;;19.90;99.90;;;;;;4969905;28;20066;-67
2023/09/02 02:37:03;;;;;;;7.77;2.60;;;20.00;99.90;;;;;;4969723;28;20038;-67
2023/09/02 02:39:29;;;;;;;4.78;2.60;;;19.90;99.90;;;;;;4966017;28;20023;-67
2023/09/02 02:41:55;;;;;;;5.90;2.58;;;20.00;99.90;;;;;;4975822;28;20518;-66
2023/09/02 02:44:20;;;;;;;4.03;2.77;;;19.90;99.90;;;;;;4968947;28;20031;-68
2023/09/02 02:46:47;;;;;;;9.13;4.00;;;20.00;99.90;;;;;;4971256;28;20052;-67
2023/09/02 02:49:13;;;;;;;4.78;3.08;;;19.90;99.90;;;;;;4971530;28;20795;-67
2023/09/02 02:51:38;;;;;;;5.88;2.92;;;19.90;99.90;;;;;;4970986;28;20031;-66
2023/09/02 02:54:04;;;;;;;10.60;2.77;;;19.90;99.90;;;;;;4973774;28;20486;-66
2023/09/02 02:56:29;;;;;;;8.60;3.10;;;19.90;99.90;;;;;;4971951;28;20029;-64
2023/09/02 02:58:55;;;;;;;5.00;2.77;;;19.90;99.90;;;;;;4975965;28;20057;-65
2023/09/02 03:01:21;;;;;;;6.05;2.72;;;19.80;99.90;;;;;;4966474;28;20035;-66
2023/09/02 03:03:47;;;;;;;6.35;2.40;;;19.90;99.90;;;;;;4974206;28;20324;-64
2023/09/02 03:06:18;;;;;;;4.10;2.90;;;19.70;99.90;;;;;;4974855;28;20038;-66
2023/09/02 03:08:43;;;;;;;6.13;2.70;;;19.80;99.90;;;;;;4970214;28;20066;-65
2023/09/02 03:11:09;;;;;;;5.97;2.77;;;19.80;99.90;;;;;;4964882;28;20062;-66
2023/09/02 03:13:35;;;;;;;6.13;2.63;;;19.60;99.90;;;;;;4963023;28;20495;-66
2023/09/02 03:16:01;;;;;;;4.67;2.67;;;19.60;99.90;;;;;;4965133;28;20498;-64
2023/09/02 03:18:27;;;;;;;7.75;2.38;;;19.70;99.90;;;;;;4962780;28;20050;-64
2023/09/02 03:20:53;;;;;;;3.50;2.20;;;19.80;99.90;;;;;;4961231;28;20038;-67
2023/09/02 03:23:19;;;;;;;4.28;2.80;;;19.70;99.90;;;;;;4963091;28;20050;-65
2023/09/02 03:25:45;;;;;;;3.83;2.60;;;19.60;99.90;;;;;;4986064;28;20184;-63
2023/09/02 03:28:12;;;;;;;5.10;2.90;;;19.60;99.90;;;;;;4964904;28;20030;-68
2023/09/02 03:30:38;;;;;;;7.15;2.75;;;19.60;99.90;;;;;;4964818;28;20036;-68
2023/09/02 03:33:04;;;;;;;4.97;2.93;;;19.50;99.90;;;;;;4966321;28;20029;-64
2023/09/02 03:35:29;;;;;;;7.03;2.85;;;19.40;99.90;;;;;;4960714;28;20115;-64
2023/09/02 03:37:55;;;;;;;7.40;2.85;;;19.40;99.90;;;;;;4970223;28;20418;-64
2023/09/02 03:40:21;;;;;;;6.30;2.67;;;19.40;99.90;;;;;;4961046;28;20122;-65
2023/09/02 03:42:47;;;;;;;6.53;2.78;;;19.30;99.90;;;;;;4967373;28;20034;-67
2023/09/02 03:45:13;;;;;;;4.67;2.67;;;19.20;99.90;;;;;;4969168;28;20042;-65
2023/09/02 03:47:39;;;;;;;;;;;19.30;99.90;;;;;;4963737;28;20043;-64
2023/09/02 03:50:05;;;;;;;8.30;3.13;;;;;;;;;;4963828;28;20017;-67
2023/09/02 03:52:31;;;;;;;9.63;3.10;;;;;;;;;;4968073;28;20076;-66
2023/09/02 03:55:00;;;;;;;6.57;3.50;;;;;;;;;;4971202;28;20034;-64
2023/09/02 03:57:26;;;;;;;8.60;2.80;;;19.20;99.90;;;;;;4961968;28;20086;-67
2023/09/02 03:59:51;;;;;;;5.20;2.60;;;19.00;99.90;;;;;;4966003;28;20034;-64
2023/09/02 04:02:17;;;;;;;4.93;3.00;;;19.00;99.90;;;;;;4961297;28;20042;-65
2023/09/02 04:04:43;;;;;;;6.73;2.77;;;18.90;99.90;;;;;;4968621;28;20551;-67
2023/09/02 04:07:08;;;;;;;11.97;3.47;;;18.80;99.90;;;;;;4968463;28;20553;-64
2023/09/02 04:09:34;;;;;;;9.20;3.10;;;18.80;99.90;;;;;;4964149;28;20031;-67
2023/09/02 04:12:00;;;;;;;8.30;2.87;;;18.70;99.90;;;;;;4967121;28;20038;-64
2023/09/02 04:14:26;;;;;;;5.10;3.15;;;18.70;99.90;;;;;;4961023;28;20119;-68
2023/09/02 04:16:52;;;;;;;5.00;3.03;;;18.60;99.90;;;;;;4966780;28;20472;-64
2023/09/02 04:19:18;;;;;;;6.35;3.33;;;18.60;99.90;;;;;;4964145;28;20031;-64
2023/09/02 04:21:46;;;;;;;5.28;3.25;;;18.60;99.90;;;;;;4966180;28;20038;-68
2023/09/02 04:24:12;;;;;;;6.15;3.30;;;18.50;99.90;;;;;;4959698;28;20026;-65
2023/09/02 04:26:38;;;;;;;7.00;3.00;;;18.60;99.90;;;;;;4955127;28;20058;-68
2023/09/02 04:29:03;;;;;;;9.00;3.40;;;18.40;99.90;;;;;;4962131;28;20035;-66
2023/09/02 04:31:29;;;;;;;8.98;4.30;;;18.50;99.90;;;;;;4964341;28;20042;-68
2023/09/02 04:33:55;;;;;;;5.10;2.97;;;18.50;99.90;;;;;;4957302;28;20031;-67
2023/09/02 04:36:21;;;;;;;3.30;2.92;;;18.50;99.90;;;;;;4965368;28;20486;-65
2023/09/02 04:38:47;;;;;;;5.28;3.15;;;18.50;99.90;;;;;;4965096;28;20061;-67
2023/09/02 04:41:12;;;;;;;6.70;3.83;;;18.40;99.90;;;;;;4961760;28;20078;-68
2023/09/02 04:43:38;;;;;;;10.93;3.20;;;18.40;99.90;;;;;;4959840;28;20429;-68
2023/09/02 04:46:04;;;;;;;6.65;3.60;;;18.40;99.90;;;;;;4964930;28;20039;-67
2023/09/02 04:48:30;;;;;;;5.35;2.75;;;18.30;99.90;;;;;;4965058;28;20039;-68
2023/09/02 04:50:56;;;;;;;7.35;3.00;;;18.20;99.90;;;;;;4962239;28;20034;-65
2023/09/02 04:53:22;;;;;;;8.52;3.30;;;18.20;99.90;;;;;;4964841;28;20035;-64
2023/09/02 04:55:49;;;;;;;7.47;3.28;;;18.20;99.90;;;;;;4964534;28;20061;-69
2023/09/02 04:58:16;;;;;;;7.00;2.63;;;18.20;99.90;;;;;;4963364;28;20039;-68
2023/09/02 05:00:42;;;;;;;;;;;18.20;99.90;;;;;;4962247;28;20089;-68
2023/09/02 05:03:08;;;;;;;5.68;3.38;;;18.20;99.90;;;;;;4965268;28;20004;-68
2023/09/02 05:05:34;;;;;;;;;;;18.10;99.90;;;;;;4964223;28;20051;-68
2023/09/02 05:08:00;;;;;;;8.05;3.03;;;18.00;99.90;;;;;;4963091;28;20363;-65
2023/09/02 05:10:26;;;;;;;8.85;3.60;;;18.00;99.90;;;;;;4956401;28;20023;-68
2023/09/02 05:12:52;;;;;;;6.95;3.60;;;18.20;99.90;;;;;;4966968;28;20529;-67
2023/09/02 05:15:18;;;;;;;4.23;2.83;;;18.10;99.90;;;;;;4958057;28;20036;-64
2023/09/02 05:17:43;;;;;;;8.35;3.63;;;18.20;99.90;;;;;;4962586;28;20027;-65
2023/09/02 05:20:09;;;;;;;10.00;3.70;;;18.20;99.90;;;;;;4959554;28;20475;-64
2023/09/02 05:22:35;;;;;;;6.40;3.22;;;18.10;99.90;;;;;;4961276;28;20031;-64
2023/09/02 05:25:02;;;;;;;7.60;3.20;;;18.00;99.90;;;;;;4962558;28;20030;-65
2023/09/02 05:27:29;;;;;;;7.47;4.00;;;17.90;99.90;;;;;;4956963;28;20070;-64
2023/09/02 05:29:55;;;;;;;;;;;17.80;99.90;;;;;;4961329;28;20058;-65
2023/09/02 05:32:21;;;;;;;6.90;3.28;;;18.00;99.90;;;;;;4960925;28;20386;-65
2023/09/02 05:34:46;;;;;;;7.82;3.35;;;18.00;99.90;;;;;;4959851;28;20593;-65
2023/09/02 05:37:12;;;;;;;5.43;2.70;;;18.00;99.90;;;;;;4966005;28;20042;-68
2023/09/02 05:39:38;;;;;;;5.70;3.57;;;18.00;99.90;;;;;;4962751;28;20031;-68
2023/09/02 05:42:04;;;;;;;8.73;3.60;;;17.90;99.90;;;;;;4969742;28;20058;-66
2023/09/02 05:44:29;;;;;;;5.50;3.50;;;18.00;99.90;;;;;;4957476;28;20034;-65
2023/09/02 05:46:55;;;;;;;13.37;4.27;;;17.80;99.90;;;;;;4980035;28;20085;-65
2023/09/02 05:49:21;;;;;;;7.13;4.00;;;18.00;99.90;;;;;;4959202;28;20043;-65
2023/09/02 05:51:46;;;;;;;8.13;3.27;;;18.00;99.90;;;;;;4969544;28;20022;-65
2023/09/02 05:54:12;;;;;;;5.33;3.20;;;18.60;99.90;;;;;;4963562;28;20039;-65
2023/09/02 05:56:38;;;;;;;7.70;3.73;;;18.80;99.90;;;;;;4963481;28;20031;-65
2023/09/02 05:59:04;;;;;;;7.10;3.38;;;18.60;99.90;;;;;;4969423;28;20104;-65
2023/09/02 06:01:31;;;;;;;4.88;3.55;;;18.60;99.90;;;;;;4962562;28;20063;-68
2023/09/02 06:03:56;;;;;;;;;;;18.60;99.90;;;;;;4968484;28;20068;-66
2023/09/02 06:06:22;;;;;;;10.95;3.70;;;18.50;99.90;;;;;;4964796;28;19957;-64
2023/09/02 06:08:48;;;;;;;5.95;3.70;;;18.50;99.90;;;;;;4966329;28;20038;-65
2023/09/02 06:11:14;;;;;;;5.60;3.55;;;18.50;99.90;;;;;;4964781;28;20035;-64
2023/09/02 06:13:40;;;;;;;6.85;3.58;;;18.60;99.90;;;;;;4967289;28;20528;-65
2023/09/02 06:16:06;;;;;;;8.27;4.43;;;18.70;99.90;;;;;;4964392;28;20035;-65
2023/09/02 06:18:34;;;;;;;9.10;3.97;;;18.90;99.90;;;;;;4969674;28;20282;-65
2023/09/02 06:21:08;;;;;;;6.97;3.55;;;18.90;99.90;;;;;;4965577;28;20031;-65
2023/09/02 06:23:34;;;;;;;6.35;3.22;;;18.90;99.90;;;;;;4966666;28;20411;-66
2023/09/02 06:26:00;;;;;;;8.83;4.33;;;18.90;99.90;;;;;;4969922;28;20061;-63
2023/09/02 06:28:27;;;;;;;8.30;3.38;;;18.90;99.90;;;;;;4969659;28;20034;-64
2023/09/02 06:30:53;;;;;;;7.60;3.40;;;19.00;99.90;;;;;;4966598;28;20068;-65
2023/09/02 06:33:24;;;;;;;7.22;3.28;;;19.10;99.90;;;;;;4966296;28;20046;-66
2023/09/02 06:35:50;;;;;;;6.53;3.35;;;19.30;99.90;;;;;;4969484;28;20038;-68
2023/09/02 06:38:16;;;;;;;8.82;3.97;;;19.40;99.90;;;;;;4966713;28;20256;-66
2023/09/02 06:40:43;;;;;;;9.23;3.42;;;19.40;99.90;;;;;;4965834;28;20031;-66
2023/09/02 06:43:08;;;;;;;8.32;3.03;;;19.90;99.90;;;;;;4970807;28;20029;-68
2023/09/02 06:45:34;;;;;;;5.10;3.43;;;20.10;99.90;;;;;;4963136;28;20074;-68
2023/09/02 06:48:00;;;;;;;5.75;3.05;;;19.90;99.90;;;;;;4961997;28;20295;-69
2023/09/02 06:50:28;;;;;;;4.90;2.83;;;19.90;99.90;;;;;;4959470;28;20495;-68
2023/09/02 06:52:53;;;;;;;8.80;2.92;;;19.80;99.90;;;;;;4962153;28;20062;-68
2023/09/02 06:55:19;;;;;;;12.77;3.30;;;19.90;99.90;;;;;;4967496;28;20069;-68
2023/09/02 06:57:45;;;;;;;4.00;2.70;;;19.90;99.90;;;;;;4967069;28;20037;-66
2023/09/02 07:00:12;;;;;;;5.47;3.13;;;20.00;99.90;;;;;;4969597;28;20281;-68
2023/09/02 07:02:38;;;;;;;5.60;3.05;;;20.00;99.90;;;;;;4964081;28;20067;-65
2023/09/02 07:05:04;;;;;;;7.53;3.03;;;20.10;99.90;;;;;;4968890;28;20050;-65
2023/09/02 07:07:29;;;;;;;5.47;2.60;;;20.10;99.90;;;;;;4967947;28;20047;-66
2023/09/02 07:09:55;;;;;;;9.32;3.20;;;20.20;99.90;;;;;;4958957;28;20042;-67
2023/09/02 07:12:21;;;;;;;5.03;2.33;;;20.40;99.90;;;;;;4964773;28;20094;-65
2023/09/02 07:14:46;;;;;;;6.93;3.23;;;20.50;99.90;;;;;;4962563;28;20383;-67
2023/09/02 07:17:12;;;;;;;5.17;2.60;;;20.60;99.90;;;;;;4961301;28;20107;-67
2023/09/02 07:19:38;;;;;;;4.83;2.73;;;21.00;99.90;;;;;;4966156;28;20047;-66
2023/09/02 07:22:03;;;;;;;6.17;3.13;;;21.00;99.90;;;;;;4962617;28;20345;-68
2023/09/02 07:24:29;;;;;;;8.80;2.93;;;21.10;99.90;;;;;;4959759;28;20152;-66
2023/09/02 07:26:55;;;;;;;5.20;3.00;;;21.10;99.90;;;;;;4959615;28;20509;-66
2023/09/02 07:29:20;;;;;;;7.93;2.80;;;21.10;99.90;;;;;;4968104;28;20823;-67
2023/09/02 07:31:46;;;;;;;6.55;3.30;;;21.10;99.90;;;;;;4960537;28;20738;-67
2023/09/02 07:34:12;;;;;;;10.48;3.10;;;21.20;99.90;;;;;;4961818;28;20134;-66
2023/09/02 07:36:38;;;;;;;5.88;3.00;;;21.20;99.90;;;;;;4963392;28;20050;-67
2023/09/02 07:39:04;;;;;;;5.67;2.40;;;21.20;99.90;;;;;;4971607;28;20383;-67
2023/09/02 07:41:30;;;;;;;5.55;2.83;;;21.30;99.90;;;;;;4964745;28;20023;-65
2023/09/02 07:43:56;;;;;;;;;;;21.40;99.90;;;;;;4959485;28;20038;-66
2023/09/02 07:46:22;;;;;;;5.97;2.80;;;21.50;99.90;;;;;;4959860;28;20212;-67
2023/09/02 07:48:51;;;;;;;7.70;2.75;;;21.80;99.90;;;;;;4964537;28;20030;-64
2023/09/02 07:51:19;;;;;;;8.20;2.53;;;21.70;99.90;;;;;;4962032;28;20035;-66
2023/09/02 07:53:46;;;;;;;6.13;2.92;;;21.70;99.80;;;;;;4966132;28;20037;-66
2023/09/02 07:56:11;;;;;;;5.82;3.30;;;21.70;99.90;;;;;;4961628;28;20037;-66
2023/09/02 07:58:37;;;;;;;8.40;3.00;;;21.70;99.90;;;;;;4964880;28;20042;-67
2023/09/02 08:01:02;;;;;;;5.17;2.80;;;21.80;99.90;;;;;;4966762;28;20078;-65
2023/09/02 08:03:28;;;;;;;4.30;2.90;;;22.00;98.50;;;;;;4973413;28;20035;-66
2023/09/02 08:05:54;;;;;;;4.40;2.65;;;22.80;96.90;;;;;;4964688;28;20045;-67
2023/09/02 08:08:20;;;;;;;7.22;3.08;;;22.70;96.40;;;;;;4967358;28;20043;-65
2023/09/02 08:10:46;;;;;;;3.78;2.33;;;22.50;96.40;;;;;;4963384;28;20034;-64
2023/09/02 08:13:11;;;;;;;6.68;2.75;;;22.50;96.80;;;;;;4961912;28;20042;-65
2023/09/02 08:15:38;;;;;;;5.83;3.03;;;22.90;95.30;;;;;;4959081;28;20029;-66
2023/09/02 08:18:04;;;;;;;4.50;2.50;;;22.60;95.80;;;;;;4968713;28;20042;-66
2023/09/02 08:20:33;;;;;;;4.07;2.50;;;22.50;95.90;;;;;;4960743;28;20046;-66
2023/09/02 08:22:59;;;;;;;7.38;2.88;;;23.10;95.10;;;;;;4961001;28;20026;-66
2023/09/02 08:25:24;;;;;;;9.90;3.00;;;23.20;94.10;;;;;;4963189;28;20055;-65
2023/09/02 08:27:50;;;;;;;9.03;2.60;;;23.00;94.20;;;;;;4967066;28;20030;-67
2023/09/02 08:30:16;;;;;;;6.15;2.97;;;23.00;95.30;;;;;;4967304;28;20249;-67
2023/09/02 08:32:42;;;;;;;7.10;3.05;;;22.90;95.20;;;;;;4962277;28;20046;-67
2023/09/02 08:35:08;;;;;;;4.32;2.67;;;23.00;95.50;;;;;;4959171;28;20035;-65
2023/09/02 08:37:37;;;;;;;6.03;2.60;;;23.40;94.00;;;;;;4959429;28;20051;-66
2023/09/02 08:40:03;;;;;;;7.80;2.72;;;24.30;92.40;;;;;;4959513;28;20030;-66
2023/09/02 08:42:29;;;;;;;8.48;2.97;;;24.80;91.90;;;;;;4958756;28;20062;-66
2023/09/02 08:44:56;;;;;;;5.43;2.78;;;25.60;90.20;;;;;;4957444;28;20408;-66
2023/09/02 08:47:24;;;;;;;5.50;2.72;;;25.30;87.80;;;;;;4960918;28;20173;-66
2023/09/02 08:49:50;;;;;;;4.18;2.63;;;;;;;;;;4963746;28;20505;-66
2023/09/02 08:52:16;;;;;;;9.35;2.63;;;;;;;;;;4963282;28;20114;-66
2023/09/02 08:54:43;;;;;;;8.57;2.75;;;;;;;;;;4959434;28;20153;-66
2023/09/02 08:57:12;;;;;;;5.40;2.72;;;27.20;85.20;;;;;;4959653;28;20042;-67
2023/09/02 08:59:38;;;;;;;5.75;2.70;;;;;;;;;;4969263;28;20038;-66
2023/09/02 09:02:05;;;;;;;7.03;2.90;;;;;;;;;;4965531;28;20038;-66
2023/09/02 09:04:36;;;;;;;7.15;2.80;;;26.10;81.50;;;;;;4961457;28;20039;-65
2023/09/02 09:07:04;;;;;;;8.68;2.65;;;26.10;84.50;;;;;;4961867;28;20038;-65
2023/09/02 09:09:31;;;;;;;4.53;2.45;;;;;;;;;;4972011;28;20050;-66
2023/09/02 09:12:01;;;;;;;6.47;3.78;;;27.70;78.90;;;;;;4959365;28;20250;-64
2023/09/02 09:14:30;;;;;;;8.80;3.17;;;29.20;76.70;;;;;;4954711;28;20026;-64
2023/09/02 09:16:56;;;;;;;8.57;3.10;;;30.20;71.60;;;;;;4969259;28;20038;-72
2023/09/02 09:19:26;;;;;;;5.50;2.35;;;29.60;71.90;;;;;;4959163;28;20086;-72
2023/09/02 09:21:52;;;;;;;10.38;3.30;;;;;;;;;;4961424;28;20034;-72
2023/09/02 09:24:17;;;;;;;;;;;28.70;74.60;;;;;;4961420;28;20126;-70
2023/09/02 09:26:44;;;;;;;7.53;2.47;;;30.20;70.80;;;;;;4963661;28;19948;-70
2023/09/02 09:29:11;;;;;;;7.75;2.80;;;;;;;;;;4964805;28;20106;-68
2023/09/02 09:31:37;;;;;;;6.78;3.50;;;28.60;75.10;;;;;;4958390;28;20054;-69
2023/09/02 09:34:04;;;;;;;4.10;2.53;;;31.30;72.60;;;;;;4958559;28;20031;-71
2023/09/02 09:36:31;;;;;;;7.47;3.25;;;32.40;69.40;;;;;;4955163;28;20122;-69
2023/09/02 09:38:58;;;;;;;6.22;2.65;;;;;;;;;;4975517;28;20125;-72
2023/09/02 09:41:25;;;;;;;5.05;2.75;;;;;;;;;;4957945;28;20106;-71
2023/09/02 09:44:04;;;;;;;6.90;2.92;;;;;;;;;;4980668;28;20050;-72
2023/09/02 09:46:30;;;;;;;4.13;2.35;;;;;;;;;;4960938;28;20066;-71
2023/09/02 09:49:01;;;;;;;4.50;2.60;;;;;;;;;;4965530;28;20074;-67
2023/09/02 09:51:27;;;;;;;8.57;2.70;;;;;;;;;;4964768;28;20034;-68
2023/09/02 09:53:54;;;;;;;7.05;2.58;;;;;;;;;;4969421;28;20038;-68
2023/09/02 09:56:20;;;;;;;3.80;2.20;;;;;;;;;;4961388;28;20031;-68
2023/09/02 09:58:46;;;;;;;5.13;2.88;;;;;;;;;;4964504;28;20089;-67
2023/09/02 10:01:23;;;;;;;6.60;2.92;;;33.10;65.50;;;;;;4952030;28;20019;-68
2023/09/02 10:03:51;;;;;;;7.13;2.53;;;34.40;64.10;;;;;;4953592;28;20443;-68
2023/09/02 10:06:19;;;;;;;5.32;2.33;;;34.70;62.10;;;;;;4959852;28;20058;-69
2023/09/02 10:08:58;;;;;;;3.25;2.28;;;34.80;62.90;;;;;;4963319;28;20047;-69
2023/09/02 10:11:26;;;;;;;9.02;2.80;;;34.80;61.90;;;;;;4952177;28;20031;-68
2023/09/02 10:13:52;;;;;;;7.80;2.92;;;34.60;62.50;;;;;;4956384;28;20034;-68
2023/09/02 10:16:19;;;;;;;9.60;2.78;;;34.20;62.00;;;;;;4956177;28;20050;-69
2023/09/02 10:18:49;;;;;;;5.45;2.38;;;33.60;61.90;;;;;;4955824;28;20034;-69
2023/09/02 10:21:15;;;;;;;5.20;2.80;;;34.10;61.60;;;;;;4960547;28;20035;-68
2023/09/02 10:23:51;;;;;;;5.32;2.28;;;34.20;61.30;;;;;;4955267;28;20031;-68
2023/09/02 10:26:48;;;;;;;4.32;2.33;;;33.90;61.60;;;;;;4964742;28;20038;-68
2023/09/02 10:29:19;;;;;;;5.20;2.55;;;33.20;61.40;;;;;;4963402;28;20039;-67
2023/09/02 10:31:49;;;;;;;3.72;2.30;;;;;;;;;;4956402;28;20085;-67
2023/09/02 10:34:18;;;;;;;6.97;2.90;;;;;;;;;;4959305;28;20034;-68
2023/09/02 10:36:57;;;;;;;10.23;3.00;;;;;;;;;;4953728;28;20098;-67
2023/09/02 10:39:31;;;;;;;5.28;2.47;;;;;;;;;;4963840;28;20039;-67
2023/09/02 10:41:59;;;;;;;5.85;2.70;;;;;;;;;;4955739;28;20751;-68
2023/09/02 10:44:26;;;;;;;3.63;2.22;;;33.00;62.60;;;;;;4959283;28;20091;-69
2023/09/02 10:46:52;;;;;;;4.82;2.60;;;;;;;;;;4962747;28;20528;-68
2023/09/02 10:49:18;;;;;;;7.50;2.38;;;32.10;63.30;;;;;;4968746;28;20054;-66
2023/09/02 10:51:44;;;;;;;4.63;2.33;;;30.20;64.30;;;;;;4971160;28;20039;-66
2023/09/02 10:54:10;;;;;;;4.18;2.80;;;30.20;64.90;;;;;;4961780;28;20034;-66
2023/09/02 10:56:36;;;;;;;3.95;2.00;;;29.90;64.00;;;;;;4959686;28;20027;-67
2023/09/02 10:59:03;;;;;;;4.85;2.33;;;;;;;;;;4961632;28;20113;-66
2023/09/02 11:01:49;;;;;;;4.13;2.50;;;;;;;;;;4961446;28;20399;-67
2023/09/02 11:04:35;;;;;;;2.77;2.00;;;;;;;;;;4968965;28;20320;-68
2023/09/02 11:07:17;;;;;;;5.40;2.28;;;;;;;;;;4967688;28;20089;-66
2023/09/02 11:09:49;;;;;;;4.70;2.78;;;;;;;;;;4966046;28;20026;-67
2023/09/02 11:12:15;;;;;;;5.93;2.60;;;;;;;;;;4957646;28;20465;-68
2023/09/02 11:14:40;;;;;;;4.65;2.00;;;29.70;62.90;;;;;;4972692;28;20026;-66
2023/09/02 11:17:29;;;;;;;3.53;1.80;;;28.50;64.30;;;;;;4961983;28;20038;-66
2023/09/02 11:20:00;;;;;;;4.95;2.40;;;28.60;64.90;;;;;;4960675;28;20027;-67
2023/09/02 11:22:51;;;;;;;3.83;1.92;;;28.30;65.00;;;;;;4965288;28;20062;-66
2023/09/02 11:25:31;;;;;;;6.45;2.10;;;28.30;65.00;;;;;;4967304;28;20110;-67
2023/09/02 11:28:02;;;;;;;4.07;1.80;;;28.50;66.00;;;;;;4956796;28;20515;-68
2023/09/02 11:30:31;;;;;;;3.00;1.77;;;28.50;64.50;;;;;;4964811;28;20043;-68
2023/09/02 11:32:58;;;;;;;7.55;2.47;;;28.40;64.30;;;;;;4962059;28;20150;-67
2023/09/02 11:35:27;;;;;;;3.58;2.10;;;28.50;66.70;;;;;;4963477;28;20429;-66
2023/09/02 11:37:53;;;;;;;4.60;2.53;;;28.50;66.20;;;;;;4969799;28;20048;-66
2023/09/02 11:40:20;;;;;;;2.92;2.30;;;28.40;62.40;;;;;;4958247;28;20402;-65
2023/09/02 11:43:01;;;;;;;5.82;2.08;;;28.40;63.60;;;;;;4965702;28;20061;-65
2023/09/02 11:45:35;;;;;;;4.65;1.77;;;28.40;64.40;;;;;;4979832;28;20097;-65
2023/09/02 11:48:05;;;;;;;4.32;1.92;;;28.50;63.70;;;;;;4961239;28;20027;-66
2023/09/02 11:50:34;;;;;;;3.92;1.95;;;28.40;63.40;;;;;;4962894;28;20050;-66
2023/09/02 11:53:00;;;;;;;4.03;2.20;;;;;;;;;;4967151;28;20015;-65
2023/09/02 11:55:26;;;;;;;7.93;2.30;;;;;;;;;;4968163;28;20038;-65
2023/09/02 11:57:53;;;;;;;6.35;2.28;;;;;;;;;;4964962;28;20027;-65
2023/09/02 12:00:20;;;;;;;4.50;2.00;;;;;;;;;;4961861;28;20050;-65
2023/09/02 12:02:46;;;;;;;4.40;1.92;;;;;;;;;;4968020;28;20588;-66
2023/09/02 12:05:13;;;;;;;3.03;2.00;;;;;;;;;;4969594;28;20042;-66
2023/09/02 12:07:40;;;;;;;5.65;2.22;;;;;;;;;;4974308;28;20041;-67
2023/09/02 12:10:10;;;;;;;4.95;2.20;;;;;;;;;;4959349;28;20035;-66
2023/09/02 12:12:39;;;;;;;6.75;2.22;;;;;;;;;;4964752;28;20035;-67
2023/09/02 12:15:05;;;;;;;3.40;1.90;;;;;;;;;;4961923;28;20117;-65
2023/09/02 12:17:32;;;;;;;5.10;2.20;;;;;;;;;;4964467;28;20033;-67
2023/09/02 12:19:59;;;;;;;3.55;2.03;;;;;;;;;;4966084;28;20029;-66
2023/09/02 12:22:25;;;;;;;2.88;1.60;;;;;;;;;;4959558;28;20027;-66
2023/09/02 12:24:51;;;;;;;;;;;;;;;;;;4968757;28;20114;-67
2023/09/02 12:27:17;;;;;;;4.47;2.08;;;;;;;;;;4987480;28;19914;-67
2023/09/02 12:29:54;;;;;;;3.78;1.70;;;;;;;;;;4969548;28;20094;-68
2023/09/02 12:32:20;;;;;;;;;;;;;;;;;;4959111;28;20409;-66
2023/09/02 12:34:46;;;;;;;3.35;2.15;;;;;;;;;;4964880;28;19910;-68
2023/09/02 12:37:22;;;;;;;2.83;1.92;;;;;;;;;;4971962;28;20037;-66
2023/09/02 12:39:48;;;;;;;2.35;1.95;;;;;;;;;;4965237;28;20055;-66
2023/09/02 12:42:18;;;;;;;3.75;1.50;;;;;;;;;;4959369;28;20110;-65
2023/09/02 12:44:48;;;;;;;8.63;3.17;;;;;;;;;;4967585;28;20027;-66
2023/09/02 12:47:17;;;;;;;2.97;1.60;;;;;;;;;;4960883;28;20041;-66
2023/09/02 12:49:43;;;;;;;6.15;2.58;;;;;;;;;;4962509;28;20467;-65
2023/09/02 12:52:16;;;;;;;2.33;1.90;;;;;;;;;;4963718;28;20114;-66
2023/09/02 12:54:45;;;;;;;3.75;1.90;;;;;;;;;;4969602;28;20678;-66
2023/09/02 12:57:11;;;;;;;6.07;2.03;;;;;;;;;;4960530;28;20390;-67
2023/09/02 12:59:37;;;;;;;7.22;2.17;;;;;;;;;;4962141;28;20096;-66
2023/09/02 13:02:03;;;;;;;4.10;2.03;;;;;;;;;;4966031;28;20050;-67
2023/09/02 13:04:29;;;;;;;2.88;2.05;;;;;;;;;;4960913;28;20063;-66
2023/09/02 13:06:55;;;;;;;;;;;;;;;;;;4962959;28;20051;-66
2023/09/02 13:09:23;;;;;;;4.57;1.90;;;;;;;;;;4962591;28;19925;-66
2023/09/02 13:11:49;;;;;;;3.47;2.10;;;;;;;;;;4961737;28;20038;-65